Terminal Aerodrome Forecast
Issued by NWS Spokane, WA

Home | Current Version | Previous Version | Text Only | Print | Product List | Glossary On
Versions: 1 2 3 4 5 6 7 8 9 10 11 12 13 14
000
FTUS46 KOTX 301139
TAFGEG
TAF
KGEG 301139Z 3012/0112 18007KT P6SM -SHRA SCT040 BKN080
     FM302000 20010KT P6SM SCT090 SCT120
     FM302300 22005KT P6SM -SHRA BKN080 BKN120 BKN200 PROB30
      0100/0104 P6SM -TSRA BKN080CB BKN120=

USA.gov is the U.S. government's official web portal to all federal, state and local government web resources and services.